Arthur, IN

11:49 AM EDT on August 27, 2014 (GMT -0400)
1 Block West of Oakland City University | Change Station
CLOSE
Current Station
Personal Weather Station
Location: Oakland City, IN
Elevation: 490 ft
Nearby Weather Stations
Active Advisory: Heat Advisory

Elev 490 ft 38.34 °N, 87.35 °W | Updated 14 seconds ago

Clear
Clear
87.2 °F
Feels Like 100 °F
N
4.0
Wind Variable Wind from NNW
Gusts 7.0 mph

Today
High -- | Low -- °F
--% Chance of Precip.
Yesterday
High -- | Low -- °F
Precip. -- in
7:13 AM 8:26 PM
Waxing Crescent, 4% visible
Pressure 30.11 in
Visibility 10.0 miles
Clouds Clear
Heat Index 100 °F
Dew Point 78 °F
Humidity 74%
Rainfall 0.00 in
Snow Depth Not available.
UV 6 out of 12
Pollen 10.40 out of 12
Air Quality Not available.
Flu Activity Not available.
METAR KDCY 271515Z AUTO 00000KT 10SM CLR 28/23 A3011 RMK AO2 T02830234

More Conditions Fewer Conditions

Pressure 30.11 in
Visibility 10.0 miles
Clouds Clear
Heat Index 100 °F
Dew Point 78 °F
Humidity 74%
Rainfall 0.00 in
Snow Depth Not available.
UV 6 out of 12
Pollen 10.40 out of 12
Air Quality Not available.
Flu Activity Not available.
METAR KDCY 271515Z AUTO 00000KT 10SM CLR 28/23 A3011 RMK AO2 T02830234

More Conditions Fewer Conditions

10-Day Weather Forecast

Almanac

Astronomy

Aug. 27, 2014 Rise Set
Actual Time 7:13 AM EDT 8:26 PM EDT
Civil Twilight 6:46 AM EDT 8:53 PM EDT
Nautical Twilight 6:13 AM EDT 9:25 PM EDT
Astronomical Twilight 5:39 AM EDT 9:59 PM EDT
Moon 9:07 AM EDT 9:20 PM EDT
Length of Visible Light 14h 06m
Length of Day
13h 12m
Tomorrow will be 2m 21s shorter.
Waxing Crescent, 4% of the Moon is Illuminated
Today
Waxing Crescent
Sep 2
First Quarter
Sep 8
Full
Sep 15
Last Quarter
Sep 24
New

Today's Extremes

State Highs State Lows

Community

WunderPhotos

Upload Photos

1,747,711 photos uploaded!

Nearby

Snow Depth

Station Depth Elevation
No new snow has been reported.

Earthquake Activity

City Distance Mag. Time & Date
No recent earthquake activity has been reported nearby.
Minimum magnitude displayed is 2.5.

Coastal Water Temperatures

Place Temperature
No Stations Reporting

Nearby Weather Stations